Latest Weather Observations for Spitfire Channel

IDQ60901

Issued at 7:21 pm EST Saturday 21 September 2019 (issued every 10 minutes, with the page automatically refreshed every 10 minutes)

About weather observations | Map of Brisbane area stations | Latest observations for Brisbane area | Other Formats
Station Details ID: 040927 Name: SPITFIRE CHANNEL BEACON Lat: -27.05 Lon: 153.27 Height: 7.0 m
Data from the previous 72 hours. | See also: Recent months at Spitfire Channel
Date/Time
EST
Temp
°C
App
Temp
°C
Dew
Point
°C
Rel
Hum
%
Delta-T
°C
Wind Press
QNH
hPa
Press
MSL
hPa
Rain since
9am
mm
Dir  Spd
km/h
Gust
km/h
Spd
kts
Gust
kts
21/07:00pm - - - - - NE 26 32 14 17 - - -
21/06:30pm - - - - - NNE 24 28 13 15 - - -
21/06:00pm - - - - - NE 26 33 14 18 - - -
21/05:30pm - - - - - NE 30 32 16 17 - - -
21/05:00pm - - - - - NE 24 30 13 16 - - -
21/04:30pm - - - - - NNE 24 28 13 15 - - -
21/04:00pm - - - - - NNE 24 28 13 15 - - -
21/03:30pm - - - - - NNE 22 26 12 14 - - -
21/03:00pm - - - - - NNE 22 26 12 14 - - -
21/02:30pm - - - - - NNE 20 24 11 13 - - -
21/02:00pm - - - - - NNE 20 24 11 13 - - -
21/01:30pm - - - - - NNE 20 24 11 13 - - -
21/01:00pm - - - - - NNE 19 22 10 12 - - -
21/12:30pm - - - - - N 15 19 8 10 - - -
21/12:00pm - - - - - N 17 20 9 11 - - -
21/11:30am - - - - - N 17 19 9 10 - - -
21/11:00am - - - - - NNE 13 15 7 8 - - -
21/10:30am - - - - - N 13 17 7 9 - - -
21/10:00am - - - - - NNE 13 17 7 9 - - -
21/09:30am - - - - - N 15 17 8 9 - - -
21/09:00am - - - - - NNE 17 19 9 10 - - -
21/08:30am - - - - - NNE 13 15 7 8 - - -
21/08:00am - - - - - NNE 15 19 8 10 - - -
21/07:30am - - - - - NE 9 9 5 5 - - -
21/07:00am - - - - - NE 9 9 5 5 - - -
21/06:30am - - - - - ENE 9 11 5 6 - - -
21/06:00am - - - - - NE 9 11 5 6 - - -
21/05:30am - - - - - ENE 7 11 4 6 - - -
21/05:00am - - - - - ENE 9 13 5 7 - - -
21/04:30am - - - - - NE 11 13 6 7 - - -
21/04:00am - - - - - NE 13 15 7 8 - - -
21/03:30am - - - - - NE 13 17 7 9 - - -
21/03:00am - - - - - NE 13 17 7 9 - - -
21/02:30am - - - - - ENE 17 22 9 12 - - -
21/02:00am - - - - - ENE 19 22 10 12 - - -
21/01:30am - - - - - ENE 20 24 11 13 - - -
21/01:00am - - - - - ENE 19 22 10 12 - - -
21/12:30am - - - - - E 13 15 7 8 - - -
21/12:00am - - - - - E 13 15 7 8 - - -
 
Date/Time
EST
Temp
°C
App
Temp
°C
Dew
Point
°C
Rel
Hum
%
Delta-T
°C
Wind Press
QNH
hPa
Press
MSL
hPa
Rain since
9am
mm
Dir  Spd
km/h
Gust
km/h
Spd
kts
Gust
kts
20/11:30pm - - - - - ENE 11 13 6 7 - - -
20/11:00pm - - - - - E 9 11 5 6 - - -
20/10:30pm - - - - - ENE 11 13 6 7 - - -
20/10:00pm - - - - - E 11 15 6 8 - - -
20/09:30pm - - - - - E 9 11 5 6 - - -
20/09:00pm - - - - - E 11 13 6 7 - - -
20/08:30pm - - - - - E 11 13 6 7 - - -
20/08:00pm - - - - - E 9 13 5 7 - - -
20/07:30pm - - - - - E 11 13 6 7 - - -
20/07:00pm - - - - - E 11 15 6 8 - - -
20/06:30pm - - - - - E 17 19 9 10 - - -
20/06:00pm - - - - - E 17 20 9 11 - - -
20/05:30pm - - - - - E 19 20 10 11 - - -
20/05:00pm - - - - - E 19 24 10 13 - - -
20/04:30pm - - - - - E 20 24 11 13 - - -
20/04:00pm - - - - - E 19 20 10 11 - - -
20/03:30pm - - - - - E 15 19 8 10 - - -
20/03:00pm - - - - - ENE 6 11 3 6 - - -
20/02:30pm - - - - - CALM 0 0 0 0 - - -
20/02:00pm - - - - - CALM 0 0 0 0 - - -
20/01:30pm - - - - - CALM 0 0 0 0 - - -
20/01:00pm - - - - - CALM 0 0 0 0 - - -
20/12:30pm - - - - - SSW 6 9 3 5 - - -
20/12:00pm - - - - - S 9 11 5 6 - - -
20/11:30am - - - - - S 7 9 4 5 - - -
20/11:00am - - - - - SSE 9 13 5 7 - - -
20/10:30am - - - - - SSE 11 13 6 7 - - -
20/10:00am - - - - - SSE 11 13 6 7 - - -
20/09:30am - - - - - SSE 15 17 8 9 - - -
20/09:00am - - - - - SSE 11 15 6 8 - - -
20/08:30am - - - - - SSE 15 19 8 10 - - -
20/08:00am - - - - - SE 17 20 9 11 - - -
20/07:30am - - - - - SE 17 20 9 11 - - -
20/07:00am - - - - - SE 15 17 8 9 - - -
20/06:30am - - - - - SE 15 17 8 9 - - -
20/06:00am - - - - - SE 19 20 10 11 - - -
20/05:30am - - - - - SE 20 22 11 12 - - -
20/05:00am - - - - - SE 20 24 11 13 - - -
20/04:30am - - - - - SE 15 17 8 9 - - -
20/04:00am - - - - - SE 15 19 8 10 - - -
20/03:30am - - - - - SE 17 17 9 9 - - -
20/03:00am - - - - - SE 13 15 7 8 - - -
20/02:30am - - - - - SE 11 13 6 7 - - -
20/02:00am - - - - - SE 13 15 7 8 - - -
20/01:30am - - - - - SSE 9 13 5 7 - - -
20/01:00am - - - - - SE 7 9 4 5 - - -
20/12:30am - - - - - SE 6 6 3 3 - - -
20/12:00am - - - - - E 6 6 3 3 - - -
 
Date/Time
EST
Temp
°C
App
Temp
°C
Dew
Point
°C
Rel
Hum
%
Delta-T
°C
Wind Press
QNH
hPa
Press
MSL
hPa
Rain since
9am
mm
Dir  Spd
km/h
Gust
km/h
Spd
kts
Gust
kts
19/11:30pm - - - - - ENE 4 6 2 3 - - -
19/11:00pm - - - - - ENE 6 7 3 4 - - -
19/10:30pm - - - - - ENE 7 7 4 4 - - -
19/10:00pm - - - - - E 7 9 4 5 - - -
19/09:30pm - - - - - E 9 9 5 5 - - -
19/09:00pm - - - - - E 7 9 4 5 - - -
19/08:30pm - - - - - E 7 9 4 5 - - -
19/08:00pm - - - - - ENE 7 9 4 5 - - -
19/07:30pm - - - - - ENE 11 13 6 7 - - -
19/07:00pm - - - - - ENE 13 15 7 8 - - -
19/06:30pm - - - - - ENE 13 15 7 8 - - -
19/06:00pm - - - - - ENE 15 19 8 10 - - -
19/05:30pm - - - - - E 19 22 10 12 - - -
19/05:00pm - - - - - E 20 24 11 13 - - -
19/04:30pm - - - - - E 22 26 12 14 - - -
19/04:00pm - - - - - ENE 22 28 12 15 - - -
19/03:30pm - - - - - ENE 26 30 14 16 - - -
19/03:00pm - - - - - ENE 24 30 13 16 - - -
19/02:30pm - - - - - ENE 24 32 13 17 - - -
19/02:00pm - - - - - E 22 28 12 15 - - -
19/01:30pm - - - - - E 19 24 10 13 - - -
19/01:00pm - - - - - E 19 22 10 12 - - -
19/12:30pm - - - - - CALM 0 4 0 2 - - -
19/12:00pm - - - - - SE 9 11 5 6 - - -
19/11:30am - - - - - SE 9 11 5 6 - - -
19/11:00am - - - - - SSE 9 11 5 6 - - -
19/10:30am - - - - - S 11 13 6 7 - - -
19/10:00am - - - - - S 13 15 7 8 - - -
19/09:30am - - - - - S 13 15 7 8 - - -
19/09:00am - - - - - SSE 15 17 8 9 - - -
19/08:30am - - - - - S 17 19 9 10 - - -
19/08:00am - - - - - S 19 20 10 11 - - -
19/07:30am - - - - - SSW 17 19 9 10 - - -
19/07:00am - - - - - SSW 17 20 9 11 - - -
19/06:30am - - - - - S 17 20 9 11 - - -
19/06:00am - - - - - SSE 19 22 10 12 - - -
19/05:30am - - - - - SSE 17 19 9 10 - - -
19/05:00am - - - - - SSE 20 24 11 13 - - -
19/04:30am - - - - - SSE 22 26 12 14 - - -
19/04:00am - - - - - SSE 24 26 13 14 - - -
19/03:30am - - - - - SSE 22 26 12 14 - - -
19/03:00am - - - - - S 19 22 10 12 - - -
19/02:30am - - - - - SSW 17 19 9 10 - - -
19/02:00am - - - - - SSW 15 17 8 9 - - -
19/01:30am - - - - - SSW 9 11 5 6 - - -
19/01:00am - - - - - SSW 9 11 5 6 - - -
19/12:30am - - - - - SSE 9 11 5 6 - - -
19/12:00am - - - - - SE 6 6 3 3 - - -
 
Date/Time
EST
Temp
°C
App
Temp
°C
Dew
Point
°C
Rel
Hum
%
Delta-T
°C
Wind Press
QNH
hPa
Press
MSL
hPa
Rain since
9am
mm
Dir  Spd
km/h
Gust
km/h
Spd
kts
Gust
kts
18/11:30pm - - - - - SE 4 6 2 3 - - -
18/11:00pm - - - - - E 6 7 3 4 - - -
18/10:30pm - - - - - E 7 9 4 5 - - -
18/10:00pm - - - - - E 9 11 5 6 - - -
18/09:30pm - - - - - E 13 15 7 8 - - -
18/09:00pm - - - - - E 13 15 7 8 - - -
18/08:30pm - - - - - E 11 15 6 8 - - -
18/08:00pm - - - - - E 13 17 7 9 - - -
18/07:30pm - - - - - E 13 17 7 9 - - -

Latest Capital City Observations: Canberra | Sydney | Melbourne | Brisbane | Adelaide | Perth | Hobart | Darwin

Other formats

Comma delimited format used in spreadsheet applications
http://www.bom.gov.au/fwo/IDQ60901/IDQ60901.94581.axf

JavaScript Object Notation format (JSON) in row-major order
http://www.bom.gov.au/fwo/IDQ60901/IDQ60901.94581.json

Data quality

Most of these data are generated automatically and are frequently updated. Quality checks on data are not normally performed. It is possible for incorrect values to appear. Refer to information at About Latest Weather Observations and please check the disclaimer before using these data.